Time;durP1;ratioP1;P1;durP2;ratioP2;P2;SDS_P1;SDS_P2;PMS_P1;PMS_P2;Temp;Humidity;BMP_temperature;BMP_pressure;BME280_temperature;BME280_humidity;BME280_pressure;Samples;Min_cycle;Max_cycle;Signal;HPM_P1;HPM_P2
2022/01/18 00:01:26;;;;;;;144.68;19.98;;;4.20;99.90;;;;;;5094055;28;20077;-76
2022/01/18 00:03:52;;;;;;;176.68;19.50;;;4.20;99.90;;;;;;5094805;28;20119;-76
2022/01/18 00:06:18;;;;;;;123.72;19.20;;;4.20;99.90;;;;;;5094070;28;20111;-76
2022/01/18 00:08:44;;;;;;;205.75;20.67;;;4.10;99.90;;;;;;5094066;28;20039;-76
2022/01/18 00:11:10;;;;;;;120.43;16.65;;;4.30;99.90;;;;;;5093668;28;20032;-76
2022/01/18 00:13:40;;;;;;;109.15;17.67;;;4.40;99.90;;;;;;5092516;28;20026;-75
2022/01/18 00:18:35;;;;;;;128.55;18.45;;;3.90;99.90;;;;;;5093597;28;20026;-75
2022/01/18 00:23:28;;;;;;;137.80;17.10;;;3.90;99.90;;;;;;5092310;28;20391;-75
2022/01/18 00:25:56;;;;;;;76.78;14.65;;;4.10;99.90;;;;;;5091921;28;20036;-76
2022/01/18 00:28:25;;;;;;;102.88;14.68;;;4.10;99.90;;;;;;5093453;28;20054;-75
2022/01/18 00:38:58;;;;;;;94.72;14.73;;;3.60;99.90;;;;;;5092049;28;20036;-74
2022/01/18 00:41:26;;;;;;;80.63;15.40;;;3.50;99.90;;;;;;5093046;28;20027;-75
2022/01/18 00:43:53;;;;;;;85.13;15.00;;;3.50;99.90;;;;;;5093374;28;20074;-75
2022/01/18 00:46:19;;;;;;;64.25;14.60;;;3.40;99.90;;;;;;5093068;28;20029;-75
2022/01/18 00:48:46;;;;;;;101.32;15.13;;;3.50;99.90;;;;;;5093073;28;20181;-75
2022/01/18 00:51:14;;;;;;;91.53;15.45;;;3.40;99.90;;;;;;5091640;28;20497;-76
2022/01/18 00:53:42;;;;;;;111.90;16.20;;;3.40;99.90;;;;;;5092979;28;20031;-75
2022/01/18 00:58:41;;;;;;;73.35;16.23;;;3.40;99.90;;;;;;5092975;28;20027;-76
2022/01/18 01:01:08;;;;;;;89.82;15.40;;;3.40;99.90;;;;;;5093270;28;20047;-75
2022/01/18 01:03:35;;;;;;;112.35;15.75;;;3.30;99.90;;;;;;5092827;28;20032;-75
2022/01/18 01:06:01;;;;;;;83.57;14.32;;;3.30;99.90;;;;;;5091852;28;20164;-75
2022/01/18 01:08:27;;;;;;;96.28;14.75;;;3.30;99.90;;;;;;5092748;28;20036;-75
2022/01/18 01:10:53;;;;;;;93.05;15.32;;;3.30;99.90;;;;;;5075280;28;20051;-75
2022/01/18 01:13:19;;;;;;;140.77;15.18;;;3.30;99.90;;;;;;5072664;28;20115;-75
2022/01/18 01:16:04;;;;;;;112.07;13.82;;;3.30;99.90;;;;;;5071616;28;20104;-75
2022/01/18 01:33:00;;;;;;;58.88;10.88;;;4.00;99.90;;;;;;5093119;28;20032;-76
2022/01/18 01:35:32;;;;;;;196.20;13.52;;;3.80;99.90;;;;;;5092634;28;20044;-75
2022/01/18 01:43:28;;;;;;;285.30;17.45;;;3.80;99.90;;;;;;5092539;28;20024;-75
2022/01/18 01:45:55;;;;;;;78.68;10.88;;;3.80;99.90;;;;;;5092836;28;20028;-76
2022/01/18 01:48:24;;;;;;;234.70;14.75;;;3.80;99.90;;;;;;5092657;28;20024;-76
2022/01/18 01:51:01;;;;;;;140.18;11.95;;;3.90;99.90;;;;;;5092835;28;20036;-75
2022/01/18 01:53:27;;;;;;;117.13;14.82;;;3.90;99.90;;;;;;5092955;28;20032;-75
2022/01/18 01:55:53;;;;;;;148.18;12.32;;;3.90;99.90;;;;;;5092969;28;20020;-75
2022/01/18 01:58:21;;;;;;;265.23;17.42;;;4.10;99.90;;;;;;5092788;28;20475;-75
2022/01/18 02:00:52;;;;;;;111.68;12.43;;;4.00;99.90;;;;;;5095641;28;20064;-76
2022/01/18 02:03:18;;;;;;;319.35;16.95;;;3.70;99.90;;;;;;5091040;28;20507;-75
2022/01/18 02:05:44;;;;;;;158.77;15.10;;;3.80;99.90;;;;;;5091487;28;20109;-74
2022/01/18 02:08:12;;;;;;;53.67;11.60;;;3.60;99.90;;;;;;5092716;28;20032;-75
2022/01/18 02:10:40;;;;;;;79.43;11.73;;;3.50;99.90;;;;;;5077007;28;20033;-75
2022/01/18 02:13:07;;;;;;;55.58;11.73;;;3.30;99.90;;;;;;5072106;28;20495;-75
2022/01/18 02:15:38;;;;;;;91.93;11.73;;;3.30;99.90;;;;;;5072373;28;20031;-78
2022/01/18 02:23:33;;;;;;;40.13;9.80;;;3.30;99.90;;;;;;5075556;28;20105;-75
2022/01/18 02:25:59;;;;;;;36.92;11.00;;;3.20;99.90;;;;;;5079762;28;20032;-76
2022/01/18 02:28:27;;;;;;;139.07;14.88;;;3.20;99.90;;;;;;5095577;28;20024;-75
2022/01/18 02:30:53;;;;;;;51.58;11.00;;;3.30;99.90;;;;;;5095954;28;20051;-75
2022/01/18 02:33:19;;;;;;;39.85;11.05;;;3.30;99.90;;;;;;5095326;28;20429;-75
2022/01/18 02:35:47;;;;;;;25.02;10.82;;;3.20;99.90;;;;;;5094838;28;20056;-75
2022/01/18 02:38:15;;;;;;;38.25;10.55;;;3.20;99.90;;;;;;5095723;28;20391;-76
2022/01/18 02:40:41;;;;;;;27.73;11.00;;;3.10;99.90;;;;;;5095771;28;20020;-75
2022/01/18 02:45:55;;;;;;;33.97;11.90;;;3.00;99.90;;;;;;5098339;28;20032;-75
2022/01/18 02:48:21;;;;;;;234.48;17.40;;;3.30;99.90;;;;;;5098424;28;20042;-75
2022/01/18 02:50:48;;;;;;;71.18;12.30;;;3.50;99.90;;;;;;5096371;28;20028;-75
2022/01/18 02:53:16;;;;;;;137.05;13.95;;;3.70;99.90;;;;;;5095627;28;20024;-75
2022/01/18 02:55:43;;;;;;;96.55;11.85;;;3.80;99.90;;;;;;5095293;28;20107;-74
2022/01/18 02:58:10;;;;;;;202.48;14.00;;;3.70;99.90;;;;;;5095268;28;20024;-75
2022/01/18 03:03:24;;;;;;;74.07;11.43;;;4.00;99.90;;;;;;5095328;28;20388;-75
2022/01/18 03:05:50;;;;;;;146.07;13.68;;;3.90;99.90;;;;;;5095280;28;20020;-75
2022/01/18 03:08:17;;;;;;;172.32;14.13;;;4.00;99.90;;;;;;5095101;28;20028;-75
2022/01/18 03:10:43;;;;;;;103.00;11.73;;;3.90;99.90;;;;;;5078809;28;20511;-75
2022/01/18 03:13:09;;;;;;;88.75;11.95;;;4.10;99.90;;;;;;5076963;28;20033;-76
2022/01/18 03:15:36;;;;;;;55.08;10.98;;;4.10;99.90;;;;;;5075624;28;20473;-75
2022/01/18 03:18:08;;;;;;;127.60;12.32;;;4.10;99.90;;;;;;5074745;28;20092;-75
2022/01/18 03:20:36;;;;;;;110.38;11.57;;;4.20;99.90;;;;;;5074454;28;20492;-75
2022/01/18 03:23:02;;;;;;;159.77;13.80;;;4.20;99.90;;;;;;5074803;28;20020;-76
2022/01/18 03:25:39;;;;;;;291.70;18.10;;;4.10;99.90;;;;;;5073383;28;20032;-75
2022/01/18 03:28:08;;;;;;;70.50;12.27;;;4.30;99.90;;;;;;5074464;28;20381;-76
2022/01/18 03:30:42;;;;;;;150.15;12.93;;;4.30;99.90;;;;;;5073726;28;20036;-76
2022/01/18 03:33:10;;;;;;;344.85;19.05;;;4.40;99.90;;;;;;5074452;28;20024;-75
2022/01/18 03:35:37;;;;;;;91.88;13.25;;;4.70;99.90;;;;;;5074453;28;20131;-75
2022/01/18 03:38:03;;;;;;;95.25;12.23;;;4.20;99.90;;;;;;5074607;28;20056;-76
2022/01/18 03:40:29;;;;;;;299.73;20.02;;;3.90;99.90;;;;;;5073078;28;20017;-78
2022/01/18 03:42:56;;;;;;;122.13;14.85;;;4.10;99.90;;;;;;5074671;28;20044;-78
2022/01/18 03:45:27;;;;;;;133.63;13.48;;;4.10;99.90;;;;;;5073084;28;20031;-77
2022/01/18 03:47:55;;;;;;;108.00;11.10;;;4.00;99.90;;;;;;5074475;28;20189;-77
2022/01/18 03:50:21;;;;;;;154.70;14.50;;;4.20;99.90;;;;;;5074100;28;20068;-77
2022/01/18 03:52:47;;;;;;;274.70;18.80;;;4.10;99.90;;;;;;5072751;28;20043;-76
2022/01/18 03:55:16;;;;;;;177.85;15.15;;;4.40;99.90;;;;;;5073730;28;20028;-75
2022/01/18 03:57:42;;;;;;;151.38;14.15;;;4.10;99.90;;;;;;5072593;28;20029;-77
2022/01/18 04:00:12;;;;;;;185.80;15.30;;;4.10;99.90;;;;;;5072402;28;20032;-77
2022/01/18 04:02:39;;;;;;;152.38;13.98;;;4.10;99.90;;;;;;5056024;28;20025;-77
2022/01/18 04:05:06;;;;;;;334.30;20.88;;;3.90;99.90;;;;;;5072550;28;20116;-77
2022/01/18 04:07:32;;;;;;;195.52;14.70;;;4.10;99.90;;;;;;5055638;28;20057;-74
2022/01/18 04:09:57;;;;;;;166.75;14.25;;;4.30;99.90;;;;;;5083256;28;20452;-77
2022/01/18 04:12:23;;;;;;;165.65;14.68;;;4.40;99.90;;;;;;5075414;28;20038;-77
2022/01/18 04:14:49;;;;;;;234.85;15.75;;;4.40;99.90;;;;;;5092471;28;20032;-77
2022/01/18 04:28:18;;;;;;;182.98;13.60;;;4.50;99.90;;;;;;5072880;28;20099;-76
2022/01/18 04:30:44;;;;;;;189.73;14.02;;;4.30;99.90;;;;;;5073204;28;20037;-77
2022/01/18 04:33:09;;;;;;;126.40;13.90;;;4.30;99.90;;;;;;5073000;28;20514;-77
2022/01/18 04:35:35;;;;;;;206.93;15.57;;;4.40;99.90;;;;;;5055270;28;20131;-77
2022/01/18 04:38:01;;;;;;;150.40;12.70;;;4.50;99.90;;;;;;5072912;28;20083;-77
2022/01/18 04:40:30;;;;;;;142.25;13.18;;;4.40;99.90;;;;;;5072908;28;20029;-77
2022/01/18 04:50:56;;;;;;;118.85;12.63;;;4.00;99.90;;;;;;5072901;28;20068;-77
2022/01/18 04:53:22;;;;;;;155.57;14.38;;;4.10;99.90;;;;;;5072817;28;20028;-77
2022/01/18 04:55:54;;;;;;;74.20;12.63;;;4.30;99.90;;;;;;5071493;28;20491;-76
2022/01/18 04:58:21;;;;;;;126.35;13.50;;;4.40;99.90;;;;;;5071414;28;20044;-77
2022/01/18 05:00:50;;;;;;;162.07;15.13;;;4.50;99.90;;;;;;5071606;28;20033;-77
2022/01/18 05:03:16;;;;;;;100.85;12.18;;;4.30;99.90;;;;;;5072656;28;20029;-77
2022/01/18 05:05:42;;;;;;;75.82;11.63;;;4.40;99.90;;;;;;5072912;28;20025;-77
2022/01/18 05:08:13;;;;;;;160.15;15.38;;;4.50;99.90;;;;;;5071367;28;20109;-77
2022/01/18 05:10:42;;;;;;;106.20;12.27;;;4.70;99.90;;;;;;5087826;28;20031;-77
2022/01/18 05:14:02;;;;;;;234.32;15.70;;;4.60;99.90;;;;;;5091655;28;20077;-77
2022/01/18 05:16:22;;;;;;;78.20;12.45;;;4.70;99.90;;;;;;5082064;28;20036;-77
2022/01/18 05:19:11;;;;;;;109.22;13.68;;;4.80;99.90;;;;;;5092603;28;20032;-77
2022/01/18 05:24:19;;;;;;;87.07;13.90;;;4.50;99.90;;;;;;5092715;28;20551;-76
2022/01/18 05:26:45;;;;;;;79.80;12.90;;;4.30;99.90;;;;;;5091415;28;20115;-77
2022/01/18 05:29:11;;;;;;;56.80;12.55;;;4.10;99.90;;;;;;5091396;28;20130;-76
2022/01/18 05:31:36;;;;;;;59.67;12.35;;;3.80;99.90;;;;;;5092291;28;20027;-77
2022/01/18 05:34:02;;;;;;;56.67;12.65;;;3.70;99.90;;;;;;5092564;28;20077;-77
2022/01/18 05:36:29;;;;;;;70.68;13.45;;;3.90;99.90;;;;;;5092891;28;20081;-77
2022/01/18 05:38:55;;;;;;;157.18;15.65;;;3.90;99.90;;;;;;5092638;28;20032;-77
2022/01/18 05:41:20;;;;;;;55.30;12.10;;;3.90;99.90;;;;;;5091030;28;20024;-77
2022/01/18 05:43:46;;;;;;;69.55;15.07;;;4.00;99.90;;;;;;5091333;28;20110;-77
2022/01/18 05:46:12;;;;;;;59.50;15.00;;;4.00;99.90;;;;;;5092595;28;20028;-76
2022/01/18 05:48:38;;;;;;;54.30;13.43;;;4.00;99.90;;;;;;5092301;28;20028;-76
2022/01/18 05:51:04;;;;;;;53.80;13.15;;;3.90;99.90;;;;;;5092666;28;20039;-75
2022/01/18 05:53:31;;;;;;;43.75;13.40;;;4.00;99.90;;;;;;5095412;28;20388;-78
2022/01/18 05:55:58;;;;;;;55.45;16.48;;;4.00;99.90;;;;;;5094927;28;20024;-75
2022/01/18 05:58:24;;;;;;;101.05;15.73;;;3.90;99.90;;;;;;5096283;28;20024;-77
2022/01/18 06:00:52;;;;;;;62.30;16.88;;;4.10;99.90;;;;;;5096387;28;20361;-77
2022/01/18 06:03:52;;;;;;;64.78;15.57;;;3.90;99.90;;;;;;5094840;28;20046;-77
2022/01/18 06:09:03;;;;;;;154.57;21.08;;;4.00;99.90;;;;;;5093402;28;20377;-77
2022/01/18 06:11:28;;;;;;;51.08;14.68;;;4.00;99.90;;;;;;5085584;28;20031;-74
2022/01/18 06:13:54;;;;;;;86.43;16.35;;;4.00;99.90;;;;;;5095902;28;20040;-77
2022/01/18 06:16:20;;;;;;;80.00;14.25;;;3.80;99.90;;;;;;5096061;28;20016;-77
2022/01/18 06:18:46;;;;;;;72.82;13.27;;;4.00;99.90;;;;;;5095796;28;20028;-76
2022/01/18 06:21:11;;;;;;;50.80;15.52;;;3.90;99.90;;;;;;5095659;28;20079;-74
2022/01/18 06:23:37;;;;;;;66.28;20.67;;;4.00;99.90;;;;;;5095604;28;20080;-77
2022/01/18 06:26:04;;;;;;;190.38;21.33;;;3.90;99.90;;;;;;5095789;28;20043;-77
2022/01/18 06:28:32;;;;;;;84.40;14.82;;;4.10;99.90;;;;;;5094327;28;20115;-78
2022/01/18 06:30:58;;;;;;;83.07;14.48;;;4.00;99.90;;;;;;5095705;28;20044;-77
2022/01/18 06:33:23;;;;;;;200.98;22.83;;;3.90;99.90;;;;;;5095344;28;20016;-77
2022/01/18 06:35:49;;;;;;;80.03;19.02;;;4.00;99.90;;;;;;5095517;28;20468;-78
2022/01/18 06:38:15;;;;;;;310.38;28.83;;;4.10;99.90;;;;;;5095263;28;20066;-77
2022/01/18 06:40:41;;;;;;;143.52;17.45;;;4.30;99.90;;;;;;5094215;28;20081;-77
2022/01/18 06:43:07;;;;;;;171.95;18.85;;;4.40;99.90;;;;;;5095465;28;20036;-78
2022/01/18 06:45:33;;;;;;;107.43;16.33;;;4.40;99.90;;;;;;5095241;28;20028;-77
2022/01/18 06:47:59;;;;;;;143.70;22.45;;;4.50;99.90;;;;;;5095459;28;20047;-77
2022/01/18 06:50:24;;;;;;;134.43;23.60;;;4.50;99.90;;;;;;5095356;28;20043;-77
2022/01/18 06:52:50;;;;;;;100.07;18.17;;;4.60;99.90;;;;;;5093740;28;20113;-77
2022/01/18 06:55:16;;;;;;;77.70;16.58;;;4.40;99.90;;;;;;5095276;28;20028;-78
2022/01/18 06:57:42;;;;;;;130.27;17.13;;;4.20;99.90;;;;;;5095251;28;20033;-77
2022/01/18 07:00:08;;;;;;;125.10;16.60;;;4.20;99.90;;;;;;5094955;28;20541;-77
2022/01/18 07:02:34;;;;;;;157.20;18.85;;;4.40;99.90;;;;;;5094941;28;20025;-77
2022/01/18 07:05:00;;;;;;;155.43;20.50;;;4.40;99.90;;;;;;5093493;28;20552;-77
2022/01/18 07:07:25;;;;;;;322.52;32.78;;;4.40;99.90;;;;;;5093413;28;20024;-75
2022/01/18 07:09:51;;;;;;;157.52;19.10;;;4.70;99.90;;;;;;5094730;28;20036;-75
2022/01/18 07:12:18;;;;;;;75.95;16.83;;;4.80;99.90;;;;;;5093477;28;20031;-75
2022/01/18 07:14:44;;;;;;;55.47;15.20;;;5.00;99.90;;;;;;5095010;28;20384;-77
2022/01/18 07:17:10;;;;;;;124.20;18.45;;;4.70;99.90;;;;;;5094790;28;20035;-78
2022/01/18 07:19:37;;;;;;;98.00;14.13;;;4.80;99.90;;;;;;5093172;28;20102;-76
2022/01/18 07:22:03;;;;;;;104.90;17.23;;;4.80;99.90;;;;;;5094657;28;20429;-74
2022/01/18 07:24:44;;;;;;;101.65;17.05;;;4.70;99.90;;;;;;5093473;28;20071;-75
2022/01/18 07:27:13;;;;;;;157.48;19.55;;;4.70;99.90;;;;;;5094582;28;20036;-75
2022/01/18 07:29:43;;;;;;;191.43;20.73;;;4.90;99.90;;;;;;5094443;28;20503;-75
2022/01/18 07:32:10;;;;;;;146.50;22.58;;;5.20;99.90;;;;;;5093176;28;20032;-74
2022/01/18 07:34:41;;;;;;;185.27;21.38;;;5.40;99.90;;;;;;5094673;28;20031;-74
2022/01/18 07:37:07;;;;;;;194.80;21.38;;;5.30;99.90;;;;;;5094262;28;20016;-75
2022/01/18 07:39:33;;;;;;;91.55;17.23;;;5.30;99.90;;;;;;5094443;28;20670;-75
2022/01/18 07:41:59;;;;;;;101.38;18.35;;;5.30;99.90;;;;;;5094048;28;20039;-74
2022/01/18 07:44:25;;;;;;;93.18;15.60;;;5.20;99.90;;;;;;5094211;28;20066;-75
2022/01/18 07:46:51;;;;;;;178.48;21.30;;;5.20;99.90;;;;;;5094114;28;20480;-75
2022/01/18 07:49:17;;;;;;;176.18;18.30;;;5.30;99.90;;;;;;5092988;28;20073;-75
2022/01/18 07:51:43;;;;;;;217.55;24.75;;;5.40;99.90;;;;;;5093812;28;20032;-77
2022/01/18 07:54:10;;;;;;;103.80;19.42;;;5.60;99.90;;;;;;5094009;28;20028;-75
2022/01/18 07:56:40;;;;;;;101.47;19.02;;;5.60;99.90;;;;;;5093157;28;20016;-77
2022/01/18 07:59:06;;;;;;;124.15;18.25;;;5.20;99.90;;;;;;5092456;28;20039;-77
2022/01/18 08:01:31;;;;;;;100.07;17.50;;;5.20;99.90;;;;;;5092903;28;20020;-76
2022/01/18 08:03:57;;;;;;;100.57;19.60;;;5.30;99.90;;;;;;5093552;28;20040;-76
2022/01/18 08:06:23;;;;;;;88.43;19.98;;;5.40;99.90;;;;;;5093237;28;20024;-76
2022/01/18 08:08:48;;;;;;;56.35;16.95;;;5.50;99.90;;;;;;5093388;28;20032;-76
2022/01/18 08:11:16;;;;;;;44.88;16.73;;;5.60;99.90;;;;;;5093571;28;20039;-75
2022/01/18 08:13:45;;;;;;;41.05;17.00;;;5.90;99.90;;;;;;5093426;28;20035;-76
2022/01/18 08:16:21;;;;;;;50.80;17.00;;;5.80;99.90;;;;;;5092838;28;20078;-76
2022/01/18 08:18:48;;;;;;;37.70;15.05;;;5.70;99.90;;;;;;5093235;28;20020;-76
2022/01/18 08:21:14;;;;;;;42.75;15.85;;;5.60;99.90;;;;;;5092913;28;20092;-76
2022/01/18 08:23:40;;;;;;;41.92;16.27;;;5.40;99.90;;;;;;5093272;28;20024;-76
2022/01/18 08:26:05;;;;;;;43.80;17.25;;;5.40;99.90;;;;;;5074749;28;20043;-76
2022/01/18 08:28:31;;;;;;;41.88;16.33;;;5.40;99.90;;;;;;5091501;28;20020;-76
2022/01/18 08:30:57;;;;;;;48.30;16.17;;;5.40;99.90;;;;;;5092902;28;20028;-76
2022/01/18 08:33:24;;;;;;;50.58;16.38;;;5.50;99.90;;;;;;5074778;28;20417;-76
2022/01/18 08:35:50;;;;;;;46.80;16.48;;;5.70;99.90;;;;;;5092894;28;20024;-77
2022/01/18 08:38:16;;;;;;;55.50;20.75;;;5.60;99.90;;;;;;5092807;28;20392;-77
2022/01/18 08:40:41;;;;;;;45.03;17.75;;;5.70;99.90;;;;;;5093029;28;20032;-77
2022/01/18 08:43:07;;;;;;;54.00;19.33;;;5.80;99.90;;;;;;5092681;28;20031;-77
2022/01/18 08:45:33;;;;;;;48.15;18.98;;;5.70;99.90;;;;;;5092853;28;20412;-77
2022/01/18 08:47:59;;;;;;;63.78;19.58;;;5.80;99.90;;;;;;5092783;28;20025;-76
2022/01/18 08:50:24;;;;;;;53.08;18.45;;;6.00;99.90;;;;;;5091200;28;20042;-77
2022/01/18 08:52:52;;;;;;;58.25;22.10;;;6.20;99.90;;;;;;5092651;28;20024;-77
2022/01/18 08:55:21;;;;;;;62.38;22.92;;;6.20;99.90;;;;;;5091826;28;20043;-77
2022/01/18 08:57:47;;;;;;;64.80;22.38;;;6.20;99.90;;;;;;5091960;28;20031;-76
2022/01/18 09:00:16;;;;;;;58.65;23.27;;;6.20;99.90;;;;;;5091574;28;20028;-77
2022/01/18 09:02:42;;;;;;;60.17;24.00;;;6.20;99.90;;;;;;5092364;28;20024;-77
2022/01/18 09:05:08;;;;;;;59.13;27.55;;;6.20;99.90;;;;;;5092776;28;20085;-77
2022/01/18 09:07:37;;;;;;;55.80;22.67;;;6.30;99.90;;;;;;5091051;28;20028;-76
2022/01/18 09:10:07;;;;;;;69.13;25.83;;;6.30;99.90;;;;;;5081864;28;20493;-77
2022/01/18 09:12:34;;;;;;;69.90;24.88;;;6.50;99.90;;;;;;5072197;28;20024;-77
2022/01/18 09:15:01;;;;;;;79.78;36.70;;;6.50;99.90;;;;;;5072539;28;20369;-77
2022/01/18 09:17:28;;;;;;;73.95;27.38;;;6.40;99.90;;;;;;5071908;28;20028;-76
2022/01/18 09:19:54;;;;;;;63.33;27.17;;;6.40;99.90;;;;;;5072093;28;20047;-76
2022/01/18 09:22:21;;;;;;;59.53;20.85;;;6.40;99.90;;;;;;5070607;28;20029;-77
2022/01/18 09:24:47;;;;;;;61.05;27.17;;;6.30;99.90;;;;;;5071672;28;20028;-76
2022/01/18 09:27:13;;;;;;;55.58;26.23;;;6.40;99.90;;;;;;5087065;28;20380;-77
2022/01/18 09:29:41;;;;;;;63.83;27.15;;;6.50;99.90;;;;;;5096083;28;20036;-76
2022/01/18 09:32:07;;;;;;;64.30;26.95;;;6.60;99.90;;;;;;5096147;28;20150;-77
2022/01/18 09:34:33;;;;;;;51.20;26.05;;;6.80;99.90;;;;;;5094688;28;20123;-77
2022/01/18 09:36:59;;;;;;;73.55;27.25;;;7.10;99.90;;;;;;5096434;28;20074;-77
2022/01/18 09:39:26;;;;;;;77.22;28.48;;;7.00;99.90;;;;;;5096291;28;20055;-77
2022/01/18 09:41:54;;;;;;;80.63;30.50;;;6.60;99.90;;;;;;5096272;28;20465;-77
2022/01/18 09:44:20;;;;;;;74.80;29.52;;;6.60;99.90;;;;;;5092749;28;20024;-77
2022/01/18 09:46:49;;;;;;;63.85;26.25;;;6.70;99.90;;;;;;5073497;28;20472;-76
2022/01/18 09:49:17;;;;;;;80.00;29.55;;;6.90;99.90;;;;;;5075705;28;20032;-76
2022/01/18 09:51:43;;;;;;;68.65;26.52;;;6.70;99.90;;;;;;5075803;28;20035;-76
2022/01/18 09:54:09;;;;;;;74.78;30.00;;;6.50;99.90;;;;;;5075550;28;20040;-77
2022/01/18 09:56:35;;;;;;;77.28;29.48;;;6.50;99.90;;;;;;5076757;28;20024;-76
2022/01/18 09:59:01;;;;;;;72.13;28.42;;;6.70;99.90;;;;;;5095768;28;20036;-77
2022/01/18 10:01:29;;;;;;;81.85;31.92;;;6.80;99.90;;;;;;5089844;28;20016;-76
2022/01/18 10:04:22;;;;;;;88.65;31.65;;;6.90;99.90;;;;;;5092996;28;20030;-77
2022/01/18 10:06:51;;;;;;;95.55;30.58;;;7.00;99.90;;;;;;5096497;28;20373;-76
2022/01/18 10:09:19;;;;;;;85.72;27.40;;;7.20;99.90;;;;;;5090580;28;20036;-76
2022/01/18 10:12:11;;;;;;;97.65;30.33;;;7.20;99.90;;;;;;5075975;28;20063;-76
2022/01/18 10:14:52;;;;;;;116.07;30.70;;;7.10;99.90;;;;;;5076906;28;20032;-76
2022/01/18 10:17:35;;;;;;;118.38;32.25;;;7.30;99.90;;;;;;5080471;28;20055;-76
2022/01/18 10:20:05;;;;;;;111.18;31.40;;;7.20;99.90;;;;;;5095053;28;20036;-76
2022/01/18 10:22:44;;;;;;;129.73;34.42;;;7.30;99.90;;;;;;5094236;28;20049;-76
2022/01/18 10:25:25;;;;;;;123.05;29.17;;;7.40;99.90;;;;;;5094276;28;20468;-76
2022/01/18 10:27:55;;;;;;;133.53;28.57;;;7.40;99.90;;;;;;5095585;28;20038;-76
2022/01/18 10:30:33;;;;;;;127.65;38.28;;;7.60;99.90;;;;;;5094123;28;20047;-76
2022/01/18 10:33:12;;;;;;;146.20;32.58;;;7.70;99.90;;;;;;5094051;28;20031;-76
2022/01/18 10:36:04;;;;;;;161.82;30.92;;;7.60;99.90;;;;;;5079608;28;20358;-76
2022/01/18 10:38:31;;;;;;;147.02;33.75;;;7.80;99.90;;;;;;5073439;28;20053;-75
2022/01/18 10:40:57;;;;;;;142.20;35.05;;;7.90;99.90;;;;;;5078440;28;20085;-76
2022/01/18 10:43:28;;;;;;;149.50;36.47;;;8.00;99.90;;;;;;5091220;28;20468;-76
2022/01/18 10:46:15;;;;;;;178.23;36.43;;;7.90;99.90;;;;;;5092446;28;20444;-76
2022/01/18 10:48:48;;;;;;;134.82;34.42;;;8.00;99.90;;;;;;5092915;28;20035;-75
2022/01/18 10:51:27;;;;;;;127.95;35.17;;;7.90;99.90;;;;;;5073457;28;20044;-76
2022/01/18 10:54:04;;;;;;;137.43;35.10;;;7.60;99.90;;;;;;5071855;28;20585;-75
2022/01/18 10:56:44;;;;;;;112.38;36.58;;;7.80;99.90;;;;;;5072663;28;20033;-75
2022/01/18 10:59:25;;;;;;;112.32;31.23;;;7.80;99.90;;;;;;5091896;28;20372;-75
2022/01/18 11:02:19;;;;;;;112.75;36.35;;;7.60;99.90;;;;;;5093053;28;20499;-75
2022/01/18 11:04:55;;;;;;;138.85;35.50;;;7.50;99.90;;;;;;5093151;28;20048;-75
2022/01/18 11:07:26;;;;;;;135.63;36.28;;;7.50;99.90;;;;;;5092888;28;20115;-76
2022/01/18 11:09:53;;;;;;;125.57;36.13;;;7.50;99.90;;;;;;5083680;28;20056;-76
2022/01/18 11:12:24;;;;;;;132.48;37.42;;;7.50;99.90;;;;;;5072986;28;20033;-75
2022/01/18 11:15:02;;;;;;;113.82;34.55;;;7.80;99.90;;;;;;5077461;28;20077;-75
2022/01/18 11:17:37;;;;;;;137.40;37.30;;;8.00;99.90;;;;;;5093281;28;20040;-76
2022/01/18 11:20:05;;;;;;;127.35;35.78;;;8.20;99.90;;;;;;5051406;28;1189858;-75
2022/01/18 11:22:30;;;;;;;109.15;32.30;;;8.20;99.90;;;;;;5093614;28;20032;-76
2022/01/18 11:25:00;;;;;;;102.82;33.25;;;8.20;99.90;;;;;;5093593;28;20050;-75
2022/01/18 11:27:28;;;;;;;88.68;28.40;;;9.30;99.90;;;;;;5093644;28;20020;-75
2022/01/18 11:29:54;;;;;;;66.47;23.75;;;10.00;99.90;;;;;;5093541;28;20050;-76
2022/01/18 11:32:24;;;;;;;66.28;25.20;;;10.00;99.90;;;;;;5092423;28;20102;-74
2022/01/18 11:35:08;;;;;;;65.57;23.80;;;10.90;99.90;;;;;;5093669;28;20067;-75
2022/01/18 11:38:08;;;;;;;57.92;22.77;;;10.80;99.90;;;;;;5093706;28;20024;-76
2022/01/18 11:40:49;;;;;;;58.58;21.85;;;10.90;99.90;;;;;;5088012;28;20040;-76
2022/01/18 11:43:36;;;;;;;64.00;24.35;;;11.00;99.90;;;;;;5093331;28;20032;-77
2022/01/18 11:46:35;;;;;;;54.42;20.83;;;11.90;99.90;;;;;;5092320;28;20036;-77
2022/01/18 11:49:15;;;;;;;52.92;21.05;;;12.30;99.90;;;;;;5058253;28;20052;-76
2022/01/18 11:51:56;;;;;;;51.60;21.48;;;12.50;99.90;;;;;;5092830;28;20055;-76
2022/01/18 11:54:35;;;;;;;55.80;19.95;;;13.10;99.90;;;;;;5093766;28;20024;-77
2022/01/18 11:57:22;;;;;;;53.42;19.33;;;13.30;99.90;;;;;;5092932;28;20365;-74
2022/01/18 11:59:52;;;;;;;55.97;20.50;;;13.10;99.90;;;;;;5089898;28;20051;-75
2022/01/18 12:02:37;;;;;;;56.15;20.05;;;14.00;99.90;;;;;;5093040;28;20032;-74
2022/01/18 12:05:18;;;;;;;52.90;19.58;;;13.50;99.90;;;;;;5093407;28;20028;-77
2022/01/18 12:07:44;;;;;;;48.10;19.40;;;14.30;99.90;;;;;;5093563;28;20036;-73
2022/01/18 12:10:19;;;;;;;52.13;21.15;;;15.40;99.90;;;;;;5081397;28;20036;-72
2022/01/18 12:12:46;;;;;;;52.58;19.10;;;15.50;99.90;;;;;;5072831;28;20199;-73
2022/01/18 12:15:15;;;;;;;43.63;18.80;;;15.80;99.90;;;;;;5071779;28;20547;-72
2022/01/18 12:18:10;;;;;;;44.25;17.58;;;16.40;99.90;;;;;;5072985;28;20024;-71
2022/01/18 12:20:37;;;;;;;49.65;19.90;;;16.80;99.90;;;;;;5056810;28;20037;-72
2022/01/18 12:23:07;;;;;;;43.72;18.67;;;16.10;99.90;;;;;;5073204;28;20029;-72
2022/01/18 12:25:52;;;;;;;41.17;18.38;;;14.80;99.90;;;;;;5072603;28;20042;-72
2022/01/18 12:34:33;;;;;;;39.40;16.23;;;15.50;99.90;;;;;;5093087;28;20388;-72
2022/01/18 12:37:16;;;;;;;39.72;16.20;;;16.80;99.90;;;;;;5093341;28;20544;-72
2022/01/18 12:39:51;;;;;;;39.55;15.05;;;17.60;99.90;;;;;;5093237;28;20053;-71
2022/01/18 12:44:20;;;;;;;38.40;15.40;;;16.80;99.90;;;;;;5091072;28;20073;-74
2022/01/18 12:45:29;;;;;;;44.78;16.45;;;17.10;99.90;;;;;;5092846;28;20032;-73
2022/01/18 12:47:56;;;;;;;37.72;14.23;;;18.20;99.90;;;;;;5093023;28;20026;-74
2022/01/18 12:50:25;;;;;;;32.05;13.38;;;18.20;99.20;;;;;;5093118;28;20489;-74
2022/01/18 12:53:18;;;;;;;35.33;15.75;;;18.40;98.70;;;;;;5091572;28;20047;-74
2022/01/18 12:55:47;;;;;;;30.02;11.80;;;18.70;98.00;;;;;;5092801;28;20027;-74
2022/01/18 12:58:23;;;;;;;29.55;11.20;;;18.00;97.60;;;;;;5079464;28;20465;-72
2022/01/18 13:00:52;;;;;;;28.48;11.02;;;17.70;97.80;;;;;;5072790;28;20036;-72
2022/01/18 13:03:21;;;;;;;27.75;11.82;;;18.70;97.30;;;;;;5070791;28;20081;-72
2022/01/18 13:05:48;;;;;;;32.83;12.48;;;18.60;97.30;;;;;;5072497;28;20021;-72
2022/01/18 13:08:16;;;;;;;32.65;12.27;;;18.90;97.30;;;;;;5072453;28;20082;-72
2022/01/18 13:10:48;;;;;;;27.80;10.63;;;17.60;97.00;;;;;;5087928;28;20040;-72
2022/01/18 13:13:15;;;;;;;;;;;18.40;98.00;;;;;;5075775;28;20468;-72
2022/01/18 13:26:41;;;;;;;34.72;14.75;;;19.00;96.30;;;;;;5093022;28;20543;-74
2022/01/18 13:29:17;;;;;;;30.40;14.43;;;18.70;96.70;;;;;;5092533;28;20488;-74
2022/01/18 13:31:46;;;;;;;25.15;12.18;;;18.80;95.70;;;;;;5090841;28;20081;-73
2022/01/18 13:34:15;;;;;;;32.95;12.40;;;17.90;97.20;;;;;;5092536;28;20024;-74
2022/01/18 13:37:05;;;;;;;28.98;11.95;;;17.90;96.00;;;;;;5092481;28;20028;-74
2022/01/18 13:39:49;;;;;;;26.95;10.43;;;16.90;97.00;;;;;;5092237;28;20123;-74
2022/01/18 13:42:19;;;;;;;31.25;11.85;;;16.70;98.20;;;;;;5092557;28;20503;-74
2022/01/18 13:45:24;;;;;;;27.73;11.43;;;14.80;99.80;;;;;;5092505;28;20027;-73
2022/01/18 13:47:51;;;;;;;31.42;13.40;;;14.60;99.90;;;;;;5092063;28;20036;-74
2022/01/18 13:50:44;;;;;;;31.65;12.45;;;14.70;99.90;;;;;;5092334;28;20028;-74
2022/01/18 13:53:20;;;;;;;29.95;12.52;;;14.50;99.90;;;;;;5090706;28;20494;-73
2022/01/18 13:55:48;;;;;;;34.92;11.77;;;14.80;99.90;;;;;;5092396;28;20090;-74
2022/01/18 13:58:19;;;;;;;29.42;12.73;;;14.90;99.90;;;;;;5092253;28;20027;-73
2022/01/18 14:00:45;;;;;;;23.60;11.80;;;14.10;99.90;;;;;;5091151;28;20102;-74
2022/01/18 14:03:26;;;;;;;35.17;11.95;;;13.60;99.90;;;;;;5091698;28;20024;-74
2022/01/18 14:05:52;;;;;;;33.78;11.55;;;13.60;99.90;;;;;;5090720;28;20140;-73
2022/01/18 14:08:18;;;;;;;25.95;9.95;;;12.90;99.90;;;;;;5090961;28;20024;-74
2022/01/18 14:10:43;;;;;;;34.80;11.02;;;12.60;99.90;;;;;;5076976;28;20044;-74
2022/01/18 14:13:27;;;;;;;28.77;10.70;;;12.20;99.90;;;;;;5093119;28;20028;-74